Time;durP1;ratioP1;P1;durP2;ratioP2;P2;SDS_P1;SDS_P2;PMS_P1;PMS_P2;Temp;Humidity;BMP_temperature;BMP_pressure;BME280_temperature;BME280_humidity;BME280_pressure;Samples;Min_cycle;Max_cycle;Signal;HPM_P1;HPM_P2
2021/08/15 09:51:27;;;;;;;11.80;4.72;;;37.70;71.40;;;;;;5957728;23;21043;31
2021/08/15 09:53:53;;;;;;;12.82;4.88;;;37.70;71.50;;;;;;4824212;29;20139;-88
2021/08/15 09:56:38;;;;;;;10.15;4.70;;;37.80;71.70;;;;;;4825459;29;20122;-88
2021/08/15 09:59:20;;;;;;;7.60;4.53;;;37.80;71.40;;;;;;4825736;29;20034;-84
2021/08/15 10:01:56;;;;;;;12.10;5.05;;;37.80;72.40;;;;;;4825600;29;20046;-85
2021/08/15 10:04:23;;;;;;;9.90;4.70;;;38.00;73.70;;;;;;4825853;29;20034;-89
2021/08/15 10:06:52;;;;;;;6.28;5.13;;;37.70;75.10;;;;;;4839337;29;20481;-86
2021/08/15 10:09:22;;;;;;;12.50;5.60;;;37.50;76.70;;;;;;4825465;29;20043;-87
2021/08/15 10:11:48;;;;;;;9.10;5.07;;;37.20;77.80;;;;;;4825688;29;20042;-85
2021/08/15 10:14:15;;;;;;;10.15;5.53;;;37.00;77.50;;;;;;4829426;29;20361;-85
2021/08/15 10:17:02;;;;;;;20.33;6.22;;;36.80;76.30;;;;;;4825717;29;20046;-89
2021/08/15 10:19:39;;;;;;;9.45;5.97;;;36.80;76.60;;;;;;4825453;29;20034;-88
2021/08/15 10:22:06;;;;;;;10.23;5.03;;;36.60;76.70;;;;;;4825527;29;20038;-87
2021/08/15 10:24:49;;;;;;;8.95;4.80;;;36.60;76.70;;;;;;4839191;29;20528;-86
2021/08/15 10:27:44;;;;;;;11.82;4.60;;;36.60;76.10;;;;;;4825301;29;20115;-91
2021/08/15 10:30:21;;;;;;;11.18;5.75;;;36.70;75.60;;;;;;4825223;29;20141;-86
2021/08/15 10:32:55;;;;;;;8.05;5.10;;;36.60;75.10;;;;;;4825363;29;20043;-88
2021/08/15 10:35:38;;;;;;;9.48;5.18;;;36.50;75.50;;;;;;4825805;29;20042;-89
2021/08/15 10:38:09;;;;;;;9.13;4.60;;;36.40;75.30;;;;;;4824856;29;20042;-88
2021/08/15 10:40:38;;;;;;;6.90;4.85;;;36.40;74.70;;;;;;4839114;29;20037;-86
2021/08/15 10:43:11;;;;;;;9.32;4.65;;;36.20;74.20;;;;;;4825304;29;20090;-84
2021/08/15 10:45:38;;;;;;;12.10;4.63;;;36.10;74.90;;;;;;4825289;29;20030;-86
2021/08/15 10:48:10;;;;;;;13.77;5.28;;;36.30;74.70;;;;;;4825062;29;20043;-82
2021/08/15 10:50:43;;;;;;;12.38;5.25;;;36.40;73.70;;;;;;4824972;29;20092;-86
2021/08/15 10:53:27;;;;;;;17.77;5.30;;;36.30;74.60;;;;;;4837094;29;20519;-86
2021/08/15 10:55:56;;;;;;;8.85;5.65;;;36.20;76.00;;;;;;4842808;29;20431;-87
2021/08/15 10:58:36;;;;;;;11.57;5.43;;;36.20;76.30;;;;;;4843312;29;20098;-86
2021/08/15 11:01:04;;;;;;;11.63;5.60;;;36.20;76.90;;;;;;4842748;29;20136;-86
2021/08/15 11:03:31;;;;;;;9.18;4.90;;;36.20;76.70;;;;;;4842724;29;20034;-86
2021/08/15 11:05:58;;;;;;;9.25;4.88;;;36.00;76.30;;;;;;4842742;29;20034;-82
2021/08/15 11:08:32;;;;;;;12.52;5.00;;;35.80;76.30;;;;;;4842906;29;20033;-85
2021/08/15 11:11:16;;;;;;;8.82;5.35;;;35.70;77.40;;;;;;4842887;29;20404;-87
2021/08/15 11:13:42;;;;;;;9.85;6.03;;;35.70;78.10;;;;;;4843348;29;20042;-86
2021/08/15 11:16:26;;;;;;;18.95;6.78;;;35.70;79.50;;;;;;4842608;29;20038;-87
2021/08/15 11:19:07;;;;;;;11.73;6.25;;;35.70;80.80;;;;;;4842824;29;20062;-85
2021/08/15 11:22:10;;;;;;;14.52;6.43;;;35.50;81.60;;;;;;4842602;29;20125;-87
2021/08/15 11:24:41;;;;;;;14.63;6.30;;;35.40;82.20;;;;;;4842577;29;20391;-86
2021/08/15 11:27:07;;;;;;;14.13;8.82;;;35.30;82.60;;;;;;4842694;29;20037;-87
2021/08/15 11:29:35;;;;;;;10.23;6.57;;;35.30;83.30;;;;;;4842566;29;20399;-86
2021/08/15 11:32:01;;;;;;;9.02;5.72;;;35.20;83.40;;;;;;4842599;29;20056;-85
2021/08/15 11:34:27;;;;;;;13.48;6.20;;;35.20;83.80;;;;;;4842523;29;20038;-86
2021/08/15 11:37:05;;;;;;;18.45;8.50;;;35.00;83.60;;;;;;4842590;29;20061;-83
2021/08/15 11:39:38;;;;;;;6.38;5.32;;;35.00;84.10;;;;;;4843023;29;20382;-86
2021/08/15 11:42:15;;;;;;;13.82;6.20;;;34.90;85.50;;;;;;4846165;29;20034;-86
2021/08/15 11:45:02;;;;;;;10.18;6.68;;;34.80;86.40;;;;;;4846189;29;20044;-84
2021/08/15 11:47:33;;;;;;;6.45;5.55;;;34.80;88.10;;;;;;4846216;29;20064;-82
2021/08/15 11:50:14;;;;;;;10.50;6.60;;;34.60;88.50;;;;;;4846104;29;20041;-85
2021/08/15 11:52:40;;;;;;;14.20;7.80;;;34.60;89.00;;;;;;4845705;29;20049;-86
2021/08/15 11:55:17;;;;;;;9.30;6.53;;;34.50;90.00;;;;;;4845952;29;20030;-86
2021/08/15 11:57:54;;;;;;;10.55;6.93;;;34.40;90.40;;;;;;4846078;29;20089;-87
2021/08/15 12:00:31;;;;;;;10.90;6.25;;;34.50;90.60;;;;;;4845790;29;20037;-86
2021/08/15 12:03:06;;;;;;;16.80;6.70;;;34.50;90.60;;;;;;4844844;29;20094;-86
2021/08/15 12:05:36;;;;;;;12.68;6.07;;;34.50;90.40;;;;;;4845880;29;20030;-87
2021/08/15 12:08:07;;;;;;;17.15;5.93;;;34.50;90.10;;;;;;4845843;29;20041;-84
2021/08/15 12:10:38;;;;;;;;;;;34.50;89.90;;;;;;4846359;29;20050;-86
2021/08/15 12:13:10;;;;;;;10.95;7.03;;;34.50;90.30;;;;;;4845718;29;19910;-84
2021/08/15 12:15:36;;;;;;;14.98;7.10;;;34.40;90.40;;;;;;4845784;29;20038;-84
2021/08/15 12:18:03;;;;;;;10.35;6.93;;;34.30;90.50;;;;;;4845406;29;20060;-86
2021/08/15 12:20:29;;;;;;;15.45;6.63;;;34.30;91.00;;;;;;4845429;29;20126;-86
2021/08/15 12:23:04;;;;;;;13.20;6.60;;;34.20;91.30;;;;;;4829062;29;20470;-86
2021/08/15 12:25:30;;;;;;;17.83;6.78;;;34.20;91.90;;;;;;4845785;29;20030;-83
2021/08/15 12:28:07;;;;;;;12.25;6.78;;;34.20;91.70;;;;;;4844338;29;20452;-85
2021/08/15 12:30:33;;;;;;;11.52;6.10;;;34.20;91.30;;;;;;4845310;29;20141;-86
2021/08/15 12:33:02;;;;;;;11.45;6.05;;;34.20;92.20;;;;;;4845182;29;20065;-87
2021/08/15 12:35:27;;;;;;;10.43;6.22;;;34.10;92.50;;;;;;4845310;29;20037;-87
2021/08/15 12:37:53;;;;;;;10.50;7.45;;;34.20;92.30;;;;;;4845372;29;20045;-87
2021/08/15 12:40:27;;;;;;;14.30;6.85;;;34.30;92.70;;;;;;4845454;29;20042;-85
2021/08/15 12:42:55;;;;;;;12.57;7.05;;;34.30;92.30;;;;;;4845363;29;20034;-85
2021/08/15 12:45:40;;;;;;;14.15;6.93;;;34.30;92.30;;;;;;4845012;29;20048;-87
2021/08/15 12:48:09;;;;;;;18.40;7.32;;;34.40;92.00;;;;;;4845413;29;20484;-87
2021/08/15 12:50:38;;;;;;;10.70;7.07;;;34.40;92.00;;;;;;4844400;29;20050;-87
2021/08/15 12:53:15;;;;;;;12.05;6.80;;;34.40;92.10;;;;;;4844816;29;20053;-86
2021/08/15 12:55:42;;;;;;;18.10;7.60;;;34.40;92.30;;;;;;4845086;29;20046;-84
2021/08/15 12:58:09;;;;;;;12.38;6.13;;;34.50;92.20;;;;;;4847991;29;20049;-86
2021/08/15 13:00:37;;;;;;;13.30;6.15;;;34.50;92.10;;;;;;4845041;29;20049;-86
2021/08/15 13:03:08;;;;;;;27.70;7.13;;;34.60;91.60;;;;;;4844944;29;20061;-87
2021/08/15 13:05:35;;;;;;;11.13;6.60;;;34.60;91.60;;;;;;4845196;29;20070;-82
2021/08/15 13:08:02;;;;;;;9.55;6.72;;;34.50;91.70;;;;;;4844559;29;20120;-85
2021/08/15 13:10:29;;;;;;;11.98;6.35;;;34.50;91.70;;;;;;4828153;29;20520;-86
2021/08/15 13:12:55;;;;;;;10.68;5.88;;;34.50;90.90;;;;;;4844830;29;20038;-87
2021/08/15 13:15:22;;;;;;;10.23;5.97;;;34.60;89.70;;;;;;4844648;29;20085;-82
2021/08/15 13:17:49;;;;;;;17.42;7.30;;;34.70;90.00;;;;;;4844709;29;20033;-88
2021/08/15 13:20:20;;;;;;;15.63;7.05;;;34.80;89.20;;;;;;4844886;29;20113;-85
2021/08/15 13:22:45;;;;;;;;;;;34.80;90.00;;;;;;4844617;29;20508;-87
2021/08/15 13:25:12;;;;;;;12.98;7.10;;;34.80;90.10;;;;;;4844501;29;19912;-86
2021/08/15 13:27:39;;;;;;;12.82;6.13;;;34.70;90.50;;;;;;4844536;29;20479;-87
2021/08/15 13:30:06;;;;;;;14.30;6.22;;;34.70;90.70;;;;;;4844479;29;20053;-85
2021/08/15 13:32:32;;;;;;;11.68;6.57;;;34.70;90.00;;;;;;4844450;29;20057;-84
2021/08/15 13:34:57;;;;;;;13.55;6.72;;;34.60;90.40;;;;;;4844392;29;20098;-86
2021/08/15 13:37:25;;;;;;;13.35;7.20;;;34.60;91.10;;;;;;4843980;29;20106;-86
2021/08/15 13:39:59;;;;;;;14.60;6.95;;;34.50;91.20;;;;;;4844289;29;20112;-87
2021/08/15 13:42:28;;;;;;;12.40;7.07;;;34.40;91.20;;;;;;4844411;29;20104;-85
2021/08/15 13:44:56;;;;;;;16.23;6.05;;;34.30;92.40;;;;;;4844027;29;20042;-86
2021/08/15 13:47:23;;;;;;;16.75;6.78;;;34.20;92.30;;;;;;4844251;29;20087;-81
2021/08/15 13:49:49;;;;;;;12.75;6.63;;;34.10;93.20;;;;;;4843790;29;20126;-86
2021/08/15 13:52:16;;;;;;;13.98;6.90;;;34.20;93.40;;;;;;4844008;29;20061;-81
2021/08/15 13:54:42;;;;;;;12.18;6.40;;;34.10;93.50;;;;;;4844189;29;20038;-85
2021/08/15 13:57:09;;;;;;;22.08;7.45;;;34.00;93.30;;;;;;4844083;29;20038;-85
2021/08/15 13:59:35;;;;;;;14.85;6.90;;;33.90;93.40;;;;;;4843985;29;20037;-81
2021/08/15 14:02:01;;;;;;;10.02;7.22;;;33.80;93.50;;;;;;4843722;29;20098;-82
2021/08/15 14:04:27;;;;;;;16.60;7.28;;;33.70;93.60;;;;;;4843822;29;20034;-85
2021/08/15 14:06:53;;;;;;;17.58;7.45;;;33.70;93.20;;;;;;4843758;29;20113;-87
2021/08/15 14:09:18;;;;;;;13.98;7.38;;;33.70;93.10;;;;;;4843755;29;20026;-86
2021/08/15 14:11:45;;;;;;;12.52;7.35;;;33.60;93.30;;;;;;4827473;29;20056;-85
2021/08/15 14:14:11;;;;;;;10.18;6.60;;;33.60;93.30;;;;;;4843314;29;20116;-81
2021/08/15 14:16:37;;;;;;;10.75;7.07;;;33.60;93.70;;;;;;4843666;29;20113;-86
2021/08/15 14:19:03;;;;;;;17.15;7.28;;;33.50;93.70;;;;;;4843415;29;20031;-86
2021/08/15 14:21:29;;;;;;;12.15;7.35;;;33.40;93.80;;;;;;4843893;29;20058;-82
2021/08/15 14:23:56;;;;;;;12.45;7.18;;;33.30;94.00;;;;;;4843517;29;20046;-86
2021/08/15 14:26:23;;;;;;;15.13;6.85;;;33.20;94.10;;;;;;4842138;29;20558;-84
2021/08/15 14:28:50;;;;;;;11.07;6.50;;;33.20;94.10;;;;;;4843424;29;20102;-86
2021/08/15 14:31:16;;;;;;;10.00;6.72;;;33.20;93.90;;;;;;4843131;29;20048;-83
2021/08/15 14:33:42;;;;;;;12.85;6.68;;;33.20;93.80;;;;;;4843307;29;20479;-84
2021/08/15 14:36:09;;;;;;;9.75;6.35;;;33.30;93.80;;;;;;4826991;29;20045;-86
2021/08/15 14:38:35;;;;;;;15.27;6.53;;;33.40;93.30;;;;;;4843517;29;20034;-86
2021/08/15 14:41:01;;;;;;;15.90;6.40;;;33.40;93.10;;;;;;4843016;29;20409;-86
2021/08/15 14:43:27;;;;;;;8.45;5.82;;;33.40;93.10;;;;;;4843238;29;20041;-85
2021/08/15 14:45:52;;;;;;;16.90;6.32;;;33.40;93.10;;;;;;4843238;29;20060;-85
2021/08/15 14:48:18;;;;;;;12.63;6.07;;;33.30;93.20;;;;;;4826784;29;20042;-85
2021/08/15 14:50:44;;;;;;;14.68;7.25;;;33.20;93.30;;;;;;4843027;29;20049;-86
2021/08/15 14:53:10;;;;;;;13.70;6.32;;;33.10;93.20;;;;;;4842838;29;20140;-87
2021/08/15 14:55:37;;;;;;;8.35;5.63;;;33.10;93.20;;;;;;4842725;29;20038;-85
2021/08/15 14:58:03;;;;;;;16.60;5.88;;;33.10;93.10;;;;;;4843317;29;20045;-82
2021/08/15 15:00:30;;;;;;;20.10;6.10;;;33.20;92.80;;;;;;4843071;29;20448;-87
2021/08/15 15:02:56;;;;;;;8.80;6.68;;;33.30;91.40;;;;;;4843016;29;20038;-87
2021/08/15 15:05:21;;;;;;;10.23;5.93;;;33.40;92.30;;;;;;4842970;29;20041;-82
2021/08/15 15:07:47;;;;;;;9.00;5.90;;;33.40;90.60;;;;;;4842947;29;20472;-86
2021/08/15 15:10:13;;;;;;;9.07;5.65;;;33.40;91.60;;;;;;4842716;29;20042;-85
2021/08/15 15:12:40;;;;;;;11.25;6.38;;;33.40;93.30;;;;;;4842878;29;20425;-81
2021/08/15 15:15:11;;;;;;;11.00;5.88;;;33.30;92.90;;;;;;4841784;29;20045;-85
2021/08/15 15:17:37;;;;;;;16.75;5.82;;;33.20;93.90;;;;;;4842683;29;20121;-85
2021/08/15 15:20:04;;;;;;;13.60;5.70;;;33.20;93.10;;;;;;4842892;29;20073;-85
2021/08/15 15:22:30;;;;;;;15.88;5.55;;;33.20;93.20;;;;;;4843104;29;20428;-81
2021/08/15 15:24:56;;;;;;;13.05;6.20;;;33.30;92.60;;;;;;4842481;29;20070;-86
2021/08/15 15:27:21;;;;;;;10.63;5.20;;;33.30;90.60;;;;;;4842732;29;20480;-82
2021/08/15 15:29:47;;;;;;;8.18;4.22;;;33.40;89.80;;;;;;4842668;29;20042;-86
2021/08/15 15:32:13;;;;;;;11.75;4.32;;;33.40;85.20;;;;;;4842681;29;20034;-86
2021/08/15 15:34:38;;;;;;;15.38;4.80;;;33.40;84.90;;;;;;4842750;29;20091;-84
2021/08/15 15:37:08;;;;;;;12.02;5.30;;;33.40;84.90;;;;;;4842372;29;20046;-86
2021/08/15 15:39:33;;;;;;;10.07;5.85;;;33.40;84.60;;;;;;4842709;29;20033;-86
2021/08/15 15:41:59;;;;;;;11.32;4.72;;;33.50;85.10;;;;;;4842709;29;20060;-84
2021/08/15 15:44:25;;;;;;;9.10;4.68;;;33.50;82.50;;;;;;4845411;29;20046;-86
2021/08/15 15:46:53;;;;;;;5.53;4.32;;;33.50;82.50;;;;;;4842582;29;20044;-82
2021/08/15 15:49:19;;;;;;;20.17;4.28;;;33.40;80.30;;;;;;4842285;29;20109;-83
2021/08/15 15:51:44;;;;;;;11.65;4.00;;;33.50;80.50;;;;;;4842166;29;20444;-86
2021/08/15 15:54:10;;;;;;;6.07;4.40;;;33.50;73.80;;;;;;4842623;29;20110;-85
2021/08/15 15:56:37;;;;;;;9.82;5.35;;;33.50;80.10;;;;;;4842372;29;20488;-86
2021/08/15 15:59:03;;;;;;;10.43;5.13;;;33.50;82.10;;;;;;4842350;29;20032;-86
2021/08/15 16:01:29;;;;;;;11.07;4.50;;;33.50;80.30;;;;;;4842337;29;20038;-87
2021/08/15 16:03:55;;;;;;;7.43;4.00;;;33.50;80.10;;;;;;4842136;29;20038;-86
2021/08/15 16:06:22;;;;;;;9.45;4.50;;;33.40;78.10;;;;;;4842350;29;20471;-83
2021/08/15 16:08:48;;;;;;;9.65;4.00;;;33.40;78.00;;;;;;4842347;29;20033;-84
2021/08/15 16:11:14;;;;;;;16.80;4.50;;;33.40;71.30;;;;;;4842019;29;20046;-85
2021/08/15 16:13:39;;;;;;;7.28;4.78;;;33.30;79.50;;;;;;4842235;29;20083;-85
2021/08/15 16:16:05;;;;;;;13.10;4.75;;;33.30;80.70;;;;;;4842106;29;20037;-86
2021/08/15 16:18:31;;;;;;;10.93;4.35;;;33.20;81.00;;;;;;4842002;29;20112;-84
2021/08/15 16:20:57;;;;;;;8.18;4.25;;;33.20;78.00;;;;;;4842451;29;20488;-84
2021/08/15 16:23:23;;;;;;;14.70;4.75;;;33.30;77.70;;;;;;4841964;29;20049;-86
2021/08/15 16:25:49;;;;;;;10.13;4.50;;;33.30;76.00;;;;;;4843514;29;20044;-85
2021/08/15 16:28:15;;;;;;;11.02;4.55;;;33.20;76.40;;;;;;4828718;29;20034;-87
2021/08/15 16:30:41;;;;;;;8.52;4.90;;;33.20;75.20;;;;;;4845374;29;20057;-87
2021/08/15 16:33:07;;;;;;;9.30;3.95;;;33.30;75.00;;;;;;4845335;29;20026;-87
2021/08/15 16:35:33;;;;;;;7.18;4.10;;;33.20;73.30;;;;;;4845479;29;20038;-85
2021/08/15 16:38:00;;;;;;;6.20;4.10;;;33.30;73.70;;;;;;4845466;29;20072;-84
2021/08/15 16:40:26;;;;;;;6.18;4.30;;;33.30;73.50;;;;;;4845679;29;20070;-86
2021/08/15 16:42:52;;;;;;;16.80;4.60;;;33.20;74.20;;;;;;4844872;29;20034;-85
2021/08/15 16:45:18;;;;;;;6.55;3.60;;;33.20;73.00;;;;;;4845669;29;20121;-85
2021/08/15 16:47:43;;;;;;;9.73;3.05;;;33.20;71.20;;;;;;4844998;29;20082;-80
2021/08/15 16:50:10;;;;;;;8.27;4.18;;;33.10;71.40;;;;;;4845207;29;20053;-81
2021/08/15 16:52:36;;;;;;;8.38;4.00;;;33.10;71.80;;;;;;4845106;29;20038;-85
2021/08/15 16:55:04;;;;;;;8.68;4.07;;;33.10;70.80;;;;;;4844863;29;20034;-86
2021/08/15 16:57:30;;;;;;;10.25;3.83;;;33.10;70.50;;;;;;4844998;29;20066;-86
2021/08/15 16:59:56;;;;;;;8.93;4.03;;;33.10;69.70;;;;;;4844990;29;20064;-84
2021/08/15 17:02:21;;;;;;;12.50;4.07;;;33.00;80.50;;;;;;4845018;29;20503;-80
2021/08/15 17:04:47;;;;;;;9.00;4.68;;;32.90;84.50;;;;;;4844921;29;20041;-86
2021/08/15 17:07:14;;;;;;;12.65;5.03;;;32.70;87.00;;;;;;4844943;29;20483;-85
2021/08/15 17:09:40;;;;;;;10.80;4.78;;;32.60;87.80;;;;;;4844702;29;20079;-82
2021/08/15 17:12:06;;;;;;;10.35;6.15;;;32.50;89.40;;;;;;4844552;29;20058;-85
2021/08/15 17:14:32;;;;;;;12.05;6.68;;;32.50;91.00;;;;;;4844816;29;20376;-82
2021/08/15 17:16:58;;;;;;;14.38;7.97;;;32.40;91.40;;;;;;4844849;29;20376;-85
2021/08/15 17:19:24;;;;;;;26.17;9.43;;;32.30;91.60;;;;;;4844499;29;20038;-84
2021/08/15 17:21:50;;;;;;;11.18;6.10;;;32.20;91.90;;;;;;4844666;29;20034;-84
2021/08/15 17:24:15;;;;;;;8.38;5.97;;;32.10;91.80;;;;;;4844593;29;20441;-84
2021/08/15 17:26:41;;;;;;;9.70;5.13;;;32.10;90.80;;;;;;4844592;29;20113;-82
2021/08/15 17:29:07;;;;;;;9.77;5.63;;;32.00;90.30;;;;;;4844318;29;20038;-81
2021/08/15 17:31:33;;;;;;;15.38;7.03;;;31.90;89.10;;;;;;4844255;29;20479;-82
2021/08/15 17:33:59;;;;;;;13.95;8.40;;;31.80;88.20;;;;;;4844361;29;20034;-81
2021/08/15 17:36:25;;;;;;;15.80;8.15;;;31.70;88.10;;;;;;4843990;29;20030;-85
2021/08/15 17:38:52;;;;;;;17.40;8.32;;;31.80;86.70;;;;;;4843982;29;20038;-84
2021/08/15 17:41:17;;;;;;;14.05;8.23;;;31.80;84.70;;;;;;4843473;29;20053;-85
2021/08/15 17:43:43;;;;;;;18.40;8.32;;;31.80;84.40;;;;;;4843993;29;20480;-84
2021/08/15 17:46:09;;;;;;;12.57;6.93;;;31.80;83.80;;;;;;4844231;29;20038;-87
2021/08/15 17:48:35;;;;;;;10.80;6.75;;;31.70;83.60;;;;;;4844437;29;20036;-90
2021/08/15 17:51:01;;;;;;;23.17;11.30;;;31.60;83.40;;;;;;4843864;29;20050;-84
2021/08/15 17:53:27;;;;;;;25.65;9.93;;;31.60;84.10;;;;;;4844168;29;20107;-90
2021/08/15 17:55:52;;;;;;;11.80;7.65;;;31.50;84.20;;;;;;4844438;29;20043;-89
2021/08/15 17:58:18;;;;;;;19.75;8.70;;;31.50;84.30;;;;;;4844745;29;20057;-94
2021/08/15 18:00:45;;;;;;;15.55;7.70;;;31.50;84.70;;;;;;4844749;29;20034;-95
2021/08/15 18:03:11;;;;;;;11.77;7.20;;;31.50;84.40;;;;;;4843569;29;20086;-92
2021/08/15 18:05:37;;;;;;;26.00;7.55;;;31.50;84.20;;;;;;4844360;29;20407;-91
2021/08/15 18:08:03;;;;;;;17.20;9.50;;;31.50;84.40;;;;;;4844173;29;20062;-89
2021/08/15 18:10:29;;;;;;;29.23;10.00;;;31.40;83.90;;;;;;4843782;29;20066;-89
2021/08/15 18:12:55;;;;;;;24.92;11.38;;;31.40;84.10;;;;;;4843816;29;20507;-91
2021/08/15 18:15:20;;;;;;;26.63;9.98;;;31.30;85.10;;;;;;4844135;29;20042;-81
2021/08/15 18:17:47;;;;;;;17.98;9.02;;;31.20;85.70;;;;;;4843675;29;20053;-86
2021/08/15 18:20:15;;;;;;;23.70;9.02;;;31.20;86.60;;;;;;4843871;29;20053;-82
2021/08/15 18:22:48;;;;;;;16.58;8.52;;;31.10;86.40;;;;;;4843681;29;20060;-88
2021/08/15 18:25:14;;;;;;;18.90;8.98;;;31.10;85.50;;;;;;4842568;29;20415;-88
2021/08/15 18:27:41;;;;;;;17.27;9.07;;;31.10;85.70;;;;;;4844086;29;20042;-83
2021/08/15 18:30:07;;;;;;;18.67;9.43;;;31.00;85.10;;;;;;4847355;29;20046;-91
2021/08/15 18:32:34;;;;;;;28.08;9.85;;;30.90;85.70;;;;;;4844103;29;20030;-90
2021/08/15 18:35:00;;;;;;;16.63;9.93;;;30.90;86.00;;;;;;4843638;29;20042;-90
2021/08/15 18:37:25;;;;;;;18.58;10.85;;;30.90;86.70;;;;;;4843264;29;20044;-86
2021/08/15 18:39:54;;;;;;;22.50;10.02;;;30.80;86.10;;;;;;4844139;29;20504;-90
2021/08/15 18:42:20;;;;;;;22.48;9.40;;;30.80;86.10;;;;;;4843488;29;20045;-89
2021/08/15 18:44:48;;;;;;;18.65;8.98;;;30.80;86.40;;;;;;4842935;29;20041;-84
2021/08/15 18:47:15;;;;;;;15.77;9.40;;;30.70;86.20;;;;;;4843284;29;20041;-82
2021/08/15 18:49:42;;;;;;;26.52;10.27;;;30.70;87.20;;;;;;4842799;29;20042;-83
2021/08/15 18:52:08;;;;;;;17.58;9.68;;;30.60;86.70;;;;;;4842809;29;20053;-79
2021/08/15 18:54:35;;;;;;;18.58;10.20;;;30.60;85.80;;;;;;4842876;29;20040;-86
2021/08/15 18:57:02;;;;;;;21.23;12.02;;;30.50;85.90;;;;;;4842988;29;20117;-86
2021/08/15 18:59:28;;;;;;;29.42;12.73;;;30.50;85.70;;;;;;4842831;29;20042;-79
2021/08/15 19:01:54;;;;;;;19.85;10.93;;;30.50;86.60;;;;;;4842673;29;20090;-81
2021/08/15 19:04:20;;;;;;;18.90;11.68;;;30.50;86.40;;;;;;4842573;29;20030;-83
2021/08/15 19:06:45;;;;;;;19.98;13.07;;;30.50;86.60;;;;;;4842937;29;20455;-87
2021/08/15 19:09:11;;;;;;;27.75;13.88;;;30.50;87.40;;;;;;4843040;29;20095;-86
2021/08/15 19:11:38;;;;;;;24.90;12.02;;;30.50;88.00;;;;;;4842660;29;20125;-86
2021/08/15 19:14:04;;;;;;;18.85;10.70;;;30.50;87.30;;;;;;4842869;29;20033;-86
2021/08/15 19:16:30;;;;;;;17.40;11.10;;;30.40;86.60;;;;;;4842648;29;20033;-83
2021/08/15 19:18:56;;;;;;;22.05;11.82;;;30.40;86.50;;;;;;4842371;29;20042;-87
2021/08/15 19:21:22;;;;;;;19.88;10.73;;;30.40;86.50;;;;;;4842681;29;20083;-84
2021/08/15 19:23:47;;;;;;;15.85;9.32;;;30.30;86.70;;;;;;4842804;29;20113;-85
2021/08/15 19:26:14;;;;;;;17.25;7.20;;;30.30;86.10;;;;;;4842621;29;20038;-86
2021/08/15 19:28:40;;;;;;;12.45;7.30;;;30.20;84.50;;;;;;4842520;29;20476;-85
2021/08/15 19:31:06;;;;;;;14.52;7.28;;;30.20;84.20;;;;;;4842115;29;20068;-85
2021/08/15 19:33:32;;;;;;;13.57;6.50;;;30.20;85.40;;;;;;4825854;29;20038;-85
2021/08/15 19:36:00;;;;;;;7.95;5.65;;;30.20;82.90;;;;;;4842392;29;20441;-83
2021/08/15 19:38:26;;;;;;;13.98;6.30;;;30.10;82.30;;;;;;4842253;29;20453;-86
2021/08/15 19:40:51;;;;;;;18.85;6.30;;;30.00;82.70;;;;;;4842422;29;20065;-83
2021/08/15 19:43:17;;;;;;;13.43;6.90;;;30.00;82.40;;;;;;4842549;29;20046;-88
2021/08/15 19:45:43;;;;;;;9.30;6.15;;;29.90;82.90;;;;;;4842856;29;20117;-86
2021/08/15 19:48:08;;;;;;;11.20;6.85;;;29.90;83.30;;;;;;4842075;29;20109;-86
2021/08/15 19:50:35;;;;;;;11.95;6.85;;;29.90;83.70;;;;;;4842198;29;20042;-83
2021/08/15 19:53:00;;;;;;;13.95;7.97;;;29.90;83.70;;;;;;4842019;29;20084;-87
2021/08/15 19:55:28;;;;;;;11.02;6.93;;;29.90;84.10;;;;;;4842281;29;20061;-85
2021/08/15 19:57:54;;;;;;;14.98;7.03;;;29.90;84.10;;;;;;4842267;29;20443;-86
2021/08/15 20:00:20;;;;;;;12.25;7.55;;;29.90;84.60;;;;;;4841804;29;20065;-88
2021/08/15 20:02:48;;;;;;;14.00;7.60;;;29.90;85.20;;;;;;4845627;29;20034;-81
2021/08/15 20:05:14;;;;;;;19.38;8.40;;;29.90;85.40;;;;;;4845931;29;20045;-87
2021/08/15 20:07:40;;;;;;;22.88;10.73;;;29.80;85.40;;;;;;4846085;29;20484;-88
2021/08/15 20:10:06;;;;;;;38.58;17.27;;;29.70;84.90;;;;;;4845530;29;20038;-87
2021/08/15 20:12:32;;;;;;;43.28;20.70;;;29.70;85.40;;;;;;4845531;29;20042;-86
2021/08/15 20:14:58;;;;;;;36.83;19.08;;;29.60;85.20;;;;;;4845892;29;20030;-83
2021/08/15 20:17:24;;;;;;;24.60;14.23;;;29.60;85.10;;;;;;4845465;29;20089;-88
2021/08/15 20:19:49;;;;;;;33.75;14.30;;;29.60;85.00;;;;;;4845524;29;20034;-88
2021/08/15 20:22:15;;;;;;;29.75;14.63;;;29.60;85.50;;;;;;4845560;29;20467;-85
2021/08/15 20:24:42;;;;;;;26.13;12.23;;;29.50;86.10;;;;;;4845489;29;20376;-88
2021/08/15 20:27:08;;;;;;;21.83;11.48;;;29.50;85.90;;;;;;4845265;29;20496;-86
2021/08/15 20:29:34;;;;;;;26.50;10.15;;;29.50;86.00;;;;;;4845306;29;20113;-82
2021/08/15 20:32:01;;;;;;;17.55;9.30;;;29.50;86.00;;;;;;4844894;29;20178;-81
2021/08/15 20:34:27;;;;;;;15.80;8.45;;;29.50;85.80;;;;;;4845138;29;20034;-81
2021/08/15 20:36:53;;;;;;;20.45;9.45;;;29.40;85.60;;;;;;4845405;29;20526;-81
2021/08/15 20:39:19;;;;;;;17.00;6.60;;;29.50;86.20;;;;;;4845072;29;20399;-89
2021/08/15 20:41:46;;;;;;;16.83;7.63;;;29.50;85.70;;;;;;4845328;29;20477;-88
2021/08/15 20:44:12;;;;;;;18.65;6.70;;;29.40;85.80;;;;;;4845177;29;20061;-89
2021/08/15 20:46:39;;;;;;;12.07;7.32;;;29.40;85.90;;;;;;4845176;29;20106;-87
2021/08/15 20:49:05;;;;;;;16.30;7.65;;;29.40;86.30;;;;;;4844821;29;20041;-86
2021/08/15 20:51:31;;;;;;;26.10;9.00;;;29.40;86.90;;;;;;4844839;29;20054;-88
2021/08/15 20:53:57;;;;;;;16.08;8.15;;;29.30;87.20;;;;;;4844909;29;20049;-83
2021/08/15 20:56:23;;;;;;;12.60;8.07;;;29.20;87.50;;;;;;4845325;29;20030;-90
2021/08/15 20:58:49;;;;;;;20.48;7.30;;;29.20;87.80;;;;;;4845210;29;20033;-90
2021/08/15 21:01:15;;;;;;;12.48;7.20;;;29.20;88.00;;;;;;4853589;29;20062;-89
2021/08/15 21:03:41;;;;;;;15.63;7.00;;;29.20;87.90;;;;;;4847683;29;20507;-86
2021/08/15 21:06:06;;;;;;;11.73;6.60;;;29.10;87.80;;;;;;4844724;29;20034;-89
2021/08/15 21:08:32;;;;;;;15.90;7.15;;;29.00;88.10;;;;;;4844808;29;20081;-87
2021/08/15 21:10:58;;;;;;;10.45;7.00;;;29.00;88.40;;;;;;4844576;29;20126;-86
2021/08/15 21:13:23;;;;;;;11.30;6.57;;;29.00;88.80;;;;;;4846522;29;20034;-87
2021/08/15 21:15:49;;;;;;;14.30;7.43;;;28.90;88.70;;;;;;4845274;29;20049;-86
2021/08/15 21:18:18;;;;;;;15.40;7.57;;;28.90;89.50;;;;;;4845095;29;20496;-88
2021/08/15 21:20:44;;;;;;;15.05;6.72;;;28.90;90.00;;;;;;4843636;29;20050;-88
2021/08/15 21:23:09;;;;;;;13.13;7.82;;;28.90;90.00;;;;;;4844444;29;20026;-84
2021/08/15 21:25:37;;;;;;;14.45;7.85;;;28.90;90.00;;;;;;4844511;29;20480;-88
2021/08/15 21:28:03;;;;;;;19.52;8.88;;;28.90;89.70;;;;;;4844302;29;20049;-85
2021/08/15 21:30:29;;;;;;;15.43;8.50;;;28.80;90.00;;;;;;4844076;29;20050;-87
2021/08/15 21:32:54;;;;;;;17.85;8.30;;;28.70;90.00;;;;;;4844342;29;20090;-87
2021/08/15 21:35:20;;;;;;;13.98;7.28;;;28.70;90.30;;;;;;4844021;29;20038;-85
2021/08/15 21:37:46;;;;;;;17.13;7.85;;;28.70;90.60;;;;;;4844584;29;20083;-88
2021/08/15 21:40:14;;;;;;;10.05;6.90;;;28.70;90.40;;;;;;4843091;29;20048;-87
2021/08/15 21:42:41;;;;;;;12.55;7.45;;;28.70;90.30;;;;;;4844275;29;20064;-85
2021/08/15 21:45:07;;;;;;;13.75;7.93;;;28.70;90.40;;;;;;4843949;29;20070;-88
2021/08/15 21:47:35;;;;;;;12.88;6.82;;;28.70;90.40;;;;;;4844469;29;20046;-85
2021/08/15 21:50:02;;;;;;;11.18;7.03;;;28.80;90.20;;;;;;4844108;29;20045;-88
2021/08/15 21:52:27;;;;;;;12.32;7.63;;;28.80;90.30;;;;;;4842603;29;20064;-88
2021/08/15 21:54:53;;;;;;;13.48;6.97;;;28.80;90.40;;;;;;4843990;29;20480;-88
2021/08/15 21:57:19;;;;;;;18.17;7.32;;;28.80;90.30;;;;;;4843790;29;20161;-87
2021/08/15 21:59:44;;;;;;;13.35;7.07;;;28.70;90.20;;;;;;4843575;29;20041;-88
2021/08/15 22:02:10;;;;;;;15.55;7.03;;;28.70;90.60;;;;;;4843803;29;20037;-86
2021/08/15 22:04:36;;;;;;;11.23;7.28;;;28.70;90.60;;;;;;4827334;29;20075;-87
2021/08/15 22:07:02;;;;;;;10.65;7.10;;;28.70;90.80;;;;;;4842265;29;20053;-88
2021/08/15 22:09:28;;;;;;;14.65;7.90;;;28.60;90.80;;;;;;4844237;29;20493;-88
2021/08/15 22:11:54;;;;;;;15.18;7.03;;;28.60;90.70;;;;;;4843687;29;20078;-89
2021/08/15 22:14:21;;;;;;;13.30;6.85;;;28.50;91.00;;;;;;4843963;29;20384;-86
2021/08/15 22:16:52;;;;;;;14.65;6.78;;;28.50;91.00;;;;;;4843742;29;20042;-88
2021/08/15 22:19:18;;;;;;;11.48;6.85;;;28.40;90.70;;;;;;4843213;29;20113;-88
2021/08/15 22:21:45;;;;;;;12.13;6.55;;;28.30;90.60;;;;;;4843586;29;20144;-87
2021/08/15 22:24:12;;;;;;;12.90;6.13;;;28.20;90.50;;;;;;4843060;29;20037;-87
2021/08/15 22:26:38;;;;;;;10.68;6.75;;;28.10;90.80;;;;;;4843316;29;20050;-88
2021/08/15 22:29:09;;;;;;;11.77;6.00;;;28.10;90.40;;;;;;4843261;29;20045;-86
2021/08/15 22:31:35;;;;;;;;;;;28.00;90.50;;;;;;4843318;29;20125;-85